Time;durP1;ratioP1;P1;durP2;ratioP2;P2;SDS_P1;SDS_P2;PMS_P1;PMS_P2;Temp;Humidity;BMP_temperature;BMP_pressure;BME280_temperature;BME280_humidity;BME280_pressure;Samples;Min_cycle;Max_cycle;Signal;HPM_P1;HPM_P2
2022/09/28 00:01:24;;;;;;;2.33;1.73;;;;;;;14.38;58.76;97116.78;7006677;28;20225;-85
2022/09/28 00:04:47;;;;;;;1.83;1.73;;;;;;;14.43;59.32;97105.94;7007554;28;20260;-85
2022/09/28 00:08:08;;;;;;;1.90;1.80;;;;;;;14.64;58.93;97098.63;7006263;28;20265;-85
2022/09/28 00:11:30;;;;;;;2.97;1.67;;;;;;;14.65;59.29;97083.97;7007179;28;20306;-85
2022/09/28 00:14:52;;;;;;;1.83;1.73;;;;;;;14.70;59.29;97081.28;7006874;28;20286;-86
2022/09/28 00:18:14;;;;;;;2.70;1.90;;;;;;;14.53;59.71;97067.16;7006478;28;20430;-85
2022/09/28 00:21:38;;;;;;;4.33;2.10;;;;;;;14.45;60.21;97070.44;7007168;28;20230;-85
2022/09/28 00:25:00;;;;;;;3.70;1.93;;;;;;;14.54;60.10;97066.91;7006635;28;20210;-85
2022/09/28 00:28:21;;;;;;;2.03;1.80;;;;;;;14.17;60.48;97058.16;7006419;28;20294;-85
2022/09/28 00:31:43;;;;;;;2.13;1.93;;;;;;;14.32;60.41;97050.09;7006676;28;20425;-85
2022/09/28 00:35:05;;;;;;;1.97;1.80;;;;;;;14.42;60.31;97039.25;7007093;28;20267;-85
2022/09/28 00:38:29;;;;;;;1.60;1.50;;;;;;;14.59;59.92;97031.66;7005108;28;20313;-85
2022/09/28 00:41:51;;;;;;;2.50;1.60;;;;;;;14.50;59.62;97024.31;7006763;28;20226;-85
2022/09/28 00:45:12;;;;;;;1.97;1.77;;;;;;;14.35;60.39;97022.47;7006605;28;20336;-85
2022/09/28 00:48:36;;;;;;;1.93;1.60;;;;;;;14.19;60.29;96993.72;7006057;28;20337;-85
2022/09/28 00:51:57;;;;;;;2.20;1.50;;;;;;;14.25;60.43;96984.50;7006132;28;20211;-85
2022/09/28 00:55:25;;;;;;;2.70;2.07;;;;;;;14.43;60.36;97002.91;7006400;28;20292;-86
2022/09/28 00:58:50;;;;;;;1.77;1.57;;;;;;;14.30;60.74;96986.38;7005423;28;20360;-85
2022/09/28 01:02:11;;;;;;;1.70;1.60;;;;;;;14.23;60.95;96961.47;7005308;28;20320;-85
2022/09/28 01:05:35;;;;;;;2.30;1.60;;;;;;;14.39;61.07;96973.91;7005907;28;20222;-85
2022/09/28 01:08:59;;;;;;;1.87;1.70;;;;;;;14.54;60.51;96949.47;7005620;28;20313;-85
2022/09/28 01:12:21;;;;;;;2.00;1.50;;;;;;;14.78;60.11;96951.31;7005836;28;20672;-85
2022/09/28 01:15:49;;;;;;;2.53;1.60;;;;;;;14.41;60.64;96931.06;7006226;28;20270;-85
2022/09/28 01:19:22;;;;;;;3.43;1.73;;;;;;;14.83;60.54;96940.44;7004551;28;20321;-85
2022/09/28 01:23:11;;;;;;;2.93;1.80;;;;;;;14.83;60.23;96917.94;7005647;28;20225;-85
2022/09/28 01:27:06;;;;;;;2.00;1.60;;;;;;;14.39;61.77;96920.50;7005436;28;20668;-85
2022/09/28 01:30:27;;;;;;;2.57;1.80;;;;;;;14.36;61.41;96893.94;6904128;28;20296;-85
2022/09/28 01:33:54;;;;;;;3.37;1.87;;;;;;;14.55;61.04;96892.25;7005326;28;20210;-85
2022/09/28 01:37:18;;;;;;;2.23;1.63;;;;;;;14.61;61.41;96895.75;7005726;28;20289;-85
2022/09/28 01:40:40;;;;;;;2.43;1.90;;;;;;;14.40;61.99;96884.16;7004731;28;20226;-85
2022/09/28 01:44:07;;;;;;;2.80;1.70;;;;;;;14.34;62.21;96877.13;7005273;28;20265;-85
2022/09/28 01:47:33;;;;;;;4.33;2.07;;;;;;;14.39;62.06;96860.06;7005101;28;20902;-85
2022/09/28 01:50:57;;;;;;;3.03;1.87;;;;;;;14.44;62.10;96874.41;7005573;28;20307;-85
2022/09/28 01:54:22;;;;;;;3.13;2.00;;;;;;;14.05;62.43;96805.63;7005591;28;20766;-85
2022/09/28 01:57:47;;;;;;;2.20;1.50;;;;;;;14.14;62.80;96841.09;7005713;28;20779;-86
2022/09/28 02:01:13;;;;;;;1.73;1.43;;;;;;;14.35;62.88;96831.88;7005135;28;20260;-86
2022/09/28 02:04:39;;;;;;;3.07;1.90;;;;;;;14.13;63.10;96834.06;7006022;28;20232;-85
2022/09/28 02:08:05;;;;;;;1.60;1.50;;;;;;;14.30;63.16;96851.69;7004685;28;20702;-85
2022/09/28 02:11:27;;;;;;;4.73;1.80;;;;;;;14.28;63.32;96832.16;7004669;28;20181;-85
2022/09/28 02:14:49;;;;;;;2.60;1.80;;;;;;;14.34;63.16;96831.03;7004859;28;20205;-85
2022/09/28 02:18:13;;;;;;;4.80;2.40;;;;;;;14.30;63.22;96834.59;7004024;28;20255;-85
2022/09/28 02:21:41;;;;;;;3.17;2.40;;;;;;;14.46;62.69;96804.44;7003937;28;20368;-86
2022/09/28 02:25:06;;;;;;;3.20;2.00;;;;;;;14.53;62.80;96815.81;7004671;28;20268;-85
2022/09/28 02:28:28;;;;;;;4.20;1.93;;;;;;;14.66;61.79;96809.78;7003531;28;20312;-86
2022/09/28 02:31:50;;;;;;;2.33;1.77;;;;;;;14.13;62.72;96790.72;7004185;28;20290;-85
2022/09/28 02:35:14;;;;;;;3.70;1.70;;;;;;;14.13;63.53;96801.56;7004009;28;20208;-85
2022/09/28 02:38:36;;;;;;;2.57;1.97;;;;;;;14.50;62.95;96810.09;7003563;28;20290;-85
2022/09/28 02:42:05;;;;;;;3.50;2.00;;;;;;;14.34;62.31;96803.94;7004161;28;20594;-85
2022/09/28 02:45:36;;;;;;;4.50;2.33;;;;;;;14.69;62.30;96778.56;7004122;28;20199;-85
2022/09/28 02:49:10;;;;;;;1.83;1.73;;;;;;;14.72;62.37;96788.84;7003475;28;20254;-82
2022/09/28 02:52:56;;;;;;;3.43;1.70;;;;;;;14.77;61.54;96746.25;7003614;28;20197;-83
2022/09/28 02:56:30;;;;;;;5.90;2.37;;;;;;;14.51;62.35;96771.88;7004174;28;20210;-84
2022/09/28 02:59:57;;;;;;;5.97;2.23;;;;;;;15.05;61.11;96783.47;7003261;28;20229;-84
2022/09/28 03:03:21;;;;;;;4.80;2.00;;;;;;;14.95;61.35;96778.13;7007300;28;20278;-84
2022/09/28 03:06:46;;;;;;;4.07;3.07;;;;;;;15.16;60.60;96763.31;7009446;28;20226;-83
2022/09/28 03:10:14;;;;;;;2.33;1.80;;;;;;;15.09;60.91;96767.44;7008747;28;20295;-83
2022/09/28 03:13:36;;;;;;;5.17;1.90;;;;;;;14.95;61.50;96763.75;7009373;28;20271;-82
2022/09/28 03:16:58;;;;;;;5.17;2.17;;;;;;;15.00;61.45;96769.16;7009275;28;20253;-83
2022/09/28 03:20:20;;;;;;;1.80;1.50;;;;;;;15.03;60.57;96752.28;7008397;28;20302;-83
2022/09/28 03:23:42;;;;;;;3.03;1.90;;;;;;;15.08;60.92;96739.50;7008359;28;20359;-83
2022/09/28 03:27:05;;;;;;;4.97;2.00;;;;;;;15.29;60.96;96768.09;7008738;28;20286;-83
2022/09/28 03:30:26;;;;;;;2.80;2.00;;;;;;;14.85;62.16;96751.06;7003315;28;20201;-83
2022/09/28 03:33:48;;;;;;;7.67;2.50;;;;;;;15.02;61.83;96750.66;7008686;28;20248;-84
2022/09/28 03:37:09;;;;;;;3.90;2.10;;;;;;;15.33;60.91;96746.66;7008809;28;20308;-83
2022/09/28 03:40:31;;;;;;;4.10;3.07;;;;;;;14.84;62.38;96735.88;7007748;28;20318;-83
2022/09/28 03:43:54;;;;;;;2.97;2.50;;;;;;;14.78;62.66;96741.63;7008600;28;20307;-83
2022/09/28 03:47:16;;;;;;;4.97;1.97;;;;;;;14.65;63.41;96756.63;7007978;28;20359;-83
2022/09/28 03:50:38;;;;;;;1.97;1.83;;;;;;;14.37;62.39;96662.44;7007460;28;20198;-83
2022/09/28 03:53:59;;;;;;;5.70;2.53;;;;;;;14.56;63.59;96743.91;7007974;28;20293;-83
2022/09/28 03:57:21;;;;;;;3.80;1.93;;;;;;;14.79;63.15;96741.34;7007851;28;20316;-83
2022/09/28 04:00:46;;;;;;;2.53;2.00;;;;;;;14.66;62.84;96733.00;7007282;28;20277;-83
2022/09/28 04:04:07;;;;;;;6.53;2.20;;;;;;;14.64;63.00;96740.63;7007993;28;20554;-83
2022/09/28 04:07:29;;;;;;;4.20;2.10;;;;;;;14.75;63.17;96751.13;7007518;28;20664;-83
2022/09/28 04:10:50;;;;;;;4.03;2.10;;;;;;;14.74;63.22;96779.34;7007821;28;20347;-83
2022/09/28 04:14:12;;;;;;;2.10;1.80;;;;;;;14.86;63.18;96811.56;7006383;28;20350;-83
2022/09/28 04:17:35;;;;;;;3.33;1.90;;;;;;;14.63;63.79;96809.53;7008136;28;20778;-83
2022/09/28 04:21:02;;;;;;;4.03;2.00;;;;;;;14.48;64.10;96804.97;7009140;28;20379;-83
2022/09/28 04:24:23;;;;;;;2.43;2.13;;;;;;;14.75;63.38;96810.00;7008770;28;20217;-83
2022/09/28 04:31:24;;;;;;;4.27;1.70;;;;;;;14.65;63.17;96810.03;7008612;28;20260;-83
2022/09/28 04:34:47;;;;;;;5.47;2.10;;;;;;;14.39;63.54;96789.56;7008126;28;20292;-82
2022/09/28 04:38:08;;;;;;;3.40;1.90;;;;;;;14.72;63.24;96807.84;7008134;28;20336;-86
2022/09/28 04:41:30;;;;;;;5.87;2.10;;;;;;;14.52;62.65;96797.91;7010259;28;20328;-83
2022/09/28 04:44:51;;;;;;;1.73;1.63;;;;;;;14.66;63.26;96806.25;7019018;28;20213;-84
2022/09/28 04:48:13;;;;;;;4.63;2.13;;;;;;;14.66;62.82;96781.84;7012890;28;20249;-82
2022/09/28 04:51:36;;;;;;;4.03;2.20;;;;;;;14.64;62.68;96792.94;7010954;28;20292;-84
2022/09/28 04:54:57;;;;;;;2.53;2.23;;;;;;;14.65;62.94;96796.50;7006043;28;20251;-83
2022/09/28 04:58:19;;;;;;;2.43;1.97;;;;;;;14.71;62.73;96804.34;7005298;28;20312;-84
2022/09/28 05:01:40;;;;;;;2.00;1.90;;;;;;;14.54;63.27;96784.06;7006812;28;20316;-82
2022/09/28 05:05:02;;;;;;;4.23;1.87;;;;;;;14.85;62.84;96821.59;7008911;28;20340;-82
2022/09/28 05:08:25;;;;;;;3.97;2.20;;;;;;;15.01;62.64;96823.16;7006265;28;20308;-81
2022/09/28 05:11:48;;;;;;;2.93;2.03;;;;;;;14.93;62.83;96821.00;7006121;28;20206;-81
2022/09/28 05:15:10;;;;;;;3.37;2.10;;;;;;;14.71;63.05;96795.38;7006396;28;20240;-81
2022/09/28 05:18:32;;;;;;;4.57;2.13;;;;;;;14.78;63.09;96802.13;7006616;28;20304;-81
2022/09/28 05:21:56;;;;;;;3.23;2.20;;;;;;;14.68;63.69;96810.28;7006753;28;20232;-81
2022/09/28 05:25:19;;;;;;;3.17;2.20;;;;;;;14.71;63.55;96793.47;7006833;28;20210;-81
2022/09/28 05:28:41;;;;;;;2.33;2.00;;;;;;;14.76;63.63;96798.84;7005876;28;20301;-81
2022/09/28 05:32:02;;;;;;;4.13;2.40;;;;;;;14.38;64.06;96777.09;6983852;28;20310;-82
2022/09/28 05:35:24;;;;;;;4.00;2.73;;;;;;;14.73;63.69;96812.16;6980026;28;20202;-81
2022/09/28 05:38:46;;;;;;;2.80;2.37;;;;;;;14.60;63.80;96800.03;6979166;28;21010;-81
2022/09/28 05:42:09;;;;;;;4.47;2.80;;;;;;;14.74;63.98;96816.53;6979803;28;20269;-80
2022/09/28 05:45:30;;;;;;;3.90;2.30;;;;;;;14.83;63.55;96821.09;6979151;28;20265;-80
2022/09/28 05:48:53;;;;;;;3.63;2.60;;;;;;;14.83;63.73;96810.22;6978948;28;20705;-80
2022/09/28 05:52:14;;;;;;;5.93;3.17;;;;;;;14.49;64.06;96776.78;6978677;28;20202;-80
2022/09/28 05:55:36;;;;;;;4.20;2.80;;;;;;;14.74;63.70;96787.47;6978970;28;20302;-80
2022/09/28 05:59:00;;;;;;;7.20;4.23;;;;;;;14.92;62.97;96794.97;6979977;28;20251;-80
2022/09/28 06:02:22;;;;;;;6.47;4.00;;;;;;;14.88;63.53;96834.63;6981959;28;20244;-80
2022/09/28 06:05:46;;;;;;;5.90;4.40;;;;;;;14.85;63.72;96829.75;6984721;28;20213;-80
2022/09/28 06:09:07;;;;;;;7.73;3.00;;;;;;;14.93;63.35;96828.34;6979735;28;20705;-80
2022/09/28 06:12:29;;;;;;;2.70;2.40;;;;;;;14.86;63.49;96825.94;6978360;28;20292;-80
2022/09/28 06:15:52;;;;;;;6.97;4.13;;;;;;;14.66;63.84;96830.66;6978211;28;20846;-80
2022/09/28 06:19:13;;;;;;;3.60;3.03;;;;;;;14.82;63.51;96834.91;6977879;28;20627;-80
2022/09/28 06:22:35;;;;;;;4.43;2.53;;;;;;;14.41;63.46;96793.63;6978203;28;20312;-80
2022/09/28 06:25:58;;;;;;;3.47;2.80;;;;;;;14.60;63.73;96804.66;6978866;28;20262;-80
2022/09/28 06:29:20;;;;;;;7.07;3.13;;;;;;;14.79;63.68;96839.00;6978536;28;20264;-80
2022/09/28 06:32:43;;;;;;;3.00;2.27;;;;;;;14.56;63.05;96823.38;6977936;28;20264;-80
2022/09/28 06:36:05;;;;;;;4.03;2.50;;;;;;;14.35;63.31;96793.91;6979587;28;20290;-80
2022/09/28 06:39:26;;;;;;;4.40;2.60;;;;;;;14.25;64.67;96837.31;6978401;28;20235;-80
2022/09/28 06:42:55;;;;;;;4.83;2.50;;;;;;;14.50;64.19;96837.22;6980069;28;20294;-80
2022/09/28 06:46:17;;;;;;;3.93;2.93;;;;;;;14.84;64.04;96844.41;6979741;28;20567;-80
2022/09/28 06:49:40;;;;;;;3.17;2.57;;;;;;;14.85;63.25;96832.47;6977665;28;20281;-80
2022/09/28 06:53:02;;;;;;;2.87;2.67;;;;;;;15.07;63.12;96873.59;6977672;28;20295;-80
2022/09/28 06:56:23;;;;;;;6.73;3.40;;;;;;;15.01;63.02;96866.56;6977998;28;20277;-80
2022/09/28 06:59:45;;;;;;;5.17;3.30;;;;;;;14.88;63.42;96852.78;6977631;28;20294;-80
2022/09/28 07:03:07;;;;;;;4.80;3.00;;;;;;;15.13;63.13;96882.50;6976343;28;20324;-80
2022/09/28 07:06:30;;;;;;;3.03;2.80;;;;;;;15.24;62.94;96879.47;6979293;28;20297;-80
2022/09/28 07:09:53;;;;;;;5.90;3.50;;;;;;;14.92;63.51;96875.56;6976880;28;20257;-80
2022/09/28 07:13:16;;;;;;;4.97;2.97;;;;;;;15.00;63.34;96883.13;6977598;28;20203;-80
2022/09/28 07:16:37;;;;;;;3.30;3.00;;;;;;;15.32;63.04;96899.75;6979663;28;20293;-80
2022/09/28 07:19:59;;;;;;;7.50;3.30;;;;;;;15.20;62.93;96894.69;6978863;28;20230;-80
2022/09/28 07:23:21;;;;;;;4.90;3.13;;;;;;;15.12;63.80;96914.28;6977619;28;20293;-80
2022/09/28 07:26:44;;;;;;;4.87;3.23;;;;;;;14.79;63.54;96874.25;6978359;28;20227;-80
2022/09/28 07:30:07;;;;;;;6.57;3.67;;;;;;;15.23;63.45;96923.97;6980010;28;20217;-80
2022/09/28 07:33:31;;;;;;;4.90;3.30;;;;;;;15.52;62.26;96914.03;6977300;28;20273;-80
2022/09/28 07:36:56;;;;;;;6.70;3.50;;;;;;;15.45;62.60;96926.34;6977575;28;20694;-80
2022/09/28 07:43:58;;;;;;;4.60;3.37;;;;;;;15.79;62.39;96940.75;6978198;28;20223;-80
2022/09/28 07:47:25;;;;;;;4.97;3.13;;;;;;;16.04;61.55;96941.38;6979473;28;20238;-80
2022/09/28 07:50:48;;;;;;;4.40;3.40;;;;;;;15.91;61.83;96942.03;6983057;28;20212;-80
2022/09/28 07:54:09;;;;;;;5.00;2.87;;;;;;;15.68;62.32;96960.97;6984145;28;20203;-80
2022/09/28 07:57:33;;;;;;;6.13;3.20;;;;;;;15.93;61.81;96939.03;6987765;28;20224;-81
2022/09/28 08:00:59;;;;;;;5.70;2.70;;;;;;;16.17;61.33;96942.63;6991402;28;20204;-81
2022/09/28 08:04:22;;;;;;;3.27;2.60;;;;;;;16.13;61.63;96933.41;6984616;28;20262;-80
2022/09/28 08:07:44;;;;;;;6.27;3.27;;;;;;;15.75;61.57;96950.56;6981379;28;20235;-80
2022/09/28 08:11:09;;;;;;;3.87;3.00;;;;;;;15.44;63.66;96938.25;6981315;28;20244;-80
2022/09/28 08:14:33;;;;;;;4.10;3.17;;;;;;;16.06;61.12;96958.22;6981363;28;20208;-81
2022/09/28 08:17:55;;;;;;;5.33;3.50;;;;;;;15.96;61.10;96960.19;6980956;28;20227;-81
2022/09/28 08:24:55;;;;;;;5.20;3.00;;;;;;;16.61;58.89;96971.34;7009086;28;20186;-81
2022/09/28 08:28:17;;;;;;;4.13;3.37;;;;;;;15.69;61.32;96979.66;6981499;28;20315;-81
2022/09/28 08:31:40;;;;;;;3.40;3.10;;;;;;;15.96;60.81;96980.03;6981459;28;20638;-81
2022/09/28 08:35:02;;;;;;;6.23;3.53;;;;;;;15.59;60.55;96959.91;6980803;28;20215;-81
2022/09/28 08:38:23;;;;;;;4.83;3.40;;;;;;;15.38;61.77;96990.97;6990174;28;20318;-81
2022/09/28 08:41:49;;;;;;;6.97;3.37;;;;;;;15.40;60.98;96972.53;7008322;28;20223;-81
2022/09/28 08:45:13;;;;;;;4.37;3.10;;;;;;;15.56;59.76;96974.88;7007888;28;20281;-80
2022/09/28 08:48:47;;;;;;;4.47;3.40;;;;;;;15.98;60.04;96987.91;7006885;28;20258;-81
2022/09/28 08:52:13;;;;;;;6.47;3.30;;;;;;;15.97;60.17;96992.53;7007396;28;20193;-81
2022/09/28 08:55:37;;;;;;;3.83;2.87;;;;;;;16.56;58.60;96995.88;7006337;28;20192;-81
2022/09/28 08:59:01;;;;;;;4.60;2.93;;;;;;;16.23;57.14;96987.72;7000126;28;20310;-81
2022/09/28 09:02:25;;;;;;;4.13;2.67;;;;;;;16.42;57.36;97013.13;6977555;28;20288;-81
2022/09/28 09:05:56;;;;;;;4.53;3.00;;;;;;;15.98;57.46;97006.94;7000601;28;20210;-81
2022/09/28 09:09:23;;;;;;;3.60;2.73;;;;;;;16.93;55.09;97003.41;7005843;28;20254;-81
2022/09/28 09:12:50;;;;;;;5.17;2.87;;;;;;;17.08;55.47;97017.66;7006206;28;20275;-81
2022/09/28 09:16:20;;;;;;;5.30;2.57;;;;;;;17.23;55.05;97022.91;6985921;28;20284;-81
2022/09/28 09:19:48;;;;;;;5.80;2.60;;;;;;;17.14;54.23;97038.28;6978324;28;20290;-81
2022/09/28 09:23:17;;;;;;;6.17;3.10;;;;;;;16.87;54.41;97012.72;6979473;28;20298;-81
2022/09/28 09:26:40;;;;;;;2.97;2.40;;;;;;;16.65;53.92;97034.16;6978957;28;20251;-81
2022/09/28 09:30:06;;;;;;;6.27;3.03;;;;;;;17.01;52.79;97016.34;6978148;28;20307;-81
2022/09/28 09:33:42;;;;;;;5.63;2.60;;;;;;;16.89;54.19;97043.16;6978557;28;20260;-81
2022/09/28 09:37:16;;;;;;;5.70;2.47;;;;;;;17.01;52.97;97032.69;6984079;28;20234;-81
2022/09/28 09:40:56;;;;;;;5.50;2.80;;;;;;;17.33;53.89;97032.91;7006263;28;20209;-81
2022/09/28 09:44:37;;;;;;;3.90;2.30;;;;;;;17.42;52.81;97029.25;7006142;28;20604;-81
2022/09/28 09:48:01;;;;;;;2.73;2.30;;;;;;;17.56;50.79;97005.63;7005445;28;20231;-81
2022/09/28 09:51:27;;;;;;;2.87;2.20;;;;;;;17.11;49.93;97046.22;7006812;28;20225;-81
2022/09/28 09:54:53;;;;;;;3.00;2.20;;;;;;;17.11;49.61;97046.22;7007922;28;20286;-81
2022/09/28 09:58:20;;;;;;;2.67;2.33;;;;;;;17.50;50.78;97036.78;7006893;28;20351;-82
2022/09/28 10:01:42;;;;;;;3.37;2.20;;;;;;;17.77;50.20;97052.50;7005045;28;20190;-82
2022/09/28 10:05:07;;;;;;;5.33;2.60;;;;;;;17.03;49.61;97052.25;7007092;28;20350;-82
2022/09/28 10:08:33;;;;;;;3.90;2.20;;;;;;;17.38;49.13;97063.63;7007396;28;20274;-82
2022/09/28 10:11:54;;;;;;;3.90;2.47;;;;;;;17.11;48.98;97071.50;7009630;28;20297;-81
2022/09/28 10:15:22;;;;;;;4.77;2.30;;;;;;;16.75;49.13;97053.91;7007035;28;20254;-82
2022/09/28 10:18:44;;;;;;;4.53;2.10;;;;;;;16.89;48.80;97048.63;7005481;28;20222;-82
2022/09/28 10:22:06;;;;;;;4.90;2.67;;;;;;;16.85;50.24;97053.81;7005922;28;20675;-81
2022/09/28 10:25:30;;;;;;;4.97;2.50;;;;;;;17.16;49.46;97046.94;7005356;28;20227;-81
2022/09/28 10:28:54;;;;;;;4.70;3.10;;;;;;;17.03;49.80;97046.81;7004797;28;20252;-81
2022/09/28 10:32:24;;;;;;;2.97;2.23;;;;;;;17.41;48.80;97019.47;7005479;28;20275;-81
2022/09/28 10:35:46;;;;;;;6.73;3.00;;;;;;;17.62;48.89;97047.25;7007087;28;20210;-81
2022/09/28 10:39:23;;;;;;;2.50;2.27;;;;;;;17.93;48.10;97040.31;7008164;28;20292;-80
2022/09/28 10:42:44;;;;;;;3.17;2.70;;;;;;;17.18;49.33;97052.94;7005641;28;20261;-80
2022/09/28 10:46:08;;;;;;;4.17;2.73;;;;;;;17.55;48.97;97038.63;7006247;28;20285;-82
2022/09/28 10:49:39;;;;;;;3.70;2.40;;;;;;;17.46;49.39;97054.81;7005508;28;20317;-80
2022/09/28 10:53:18;;;;;;;3.90;2.60;;;;;;;18.12;47.55;97055.56;7005892;28;20281;-80
2022/09/28 10:56:40;;;;;;;2.80;2.13;;;;;;;17.68;47.68;97051.56;7005805;28;20197;-80
2022/09/28 11:00:02;;;;;;;3.00;2.70;;;;;;;17.68;47.65;97057.00;7005607;28;20222;-80
2022/09/28 11:03:26;;;;;;;3.53;2.17;;;;;;;18.34;46.40;97061.25;7004360;28;20228;-80
2022/09/28 11:06:49;;;;;;;2.70;2.30;;;;;;;18.21;45.47;97045.59;7006385;28;20203;-81
2022/09/28 11:10:20;;;;;;;2.67;1.93;;;;;;;18.42;45.10;97040.66;7006364;28;20219;-81
2022/09/28 11:13:44;;;;;;;3.60;2.20;;;;;;;18.08;45.99;97059.16;7010768;28;20208;-81
2022/09/28 11:17:15;;;;;;;2.77;2.43;;;;;;;17.72;43.85;97064.31;7007433;28;20200;-81
2022/09/28 11:20:39;;;;;;;5.53;2.47;;;;;;;17.05;46.21;97036.47;6977142;28;20205;-81
2022/09/28 11:24:07;;;;;;;3.97;2.10;;;;;;;17.30;45.63;97039.72;6982231;28;20229;-81
2022/09/28 11:27:29;;;;;;;3.10;2.20;;;;;;;18.00;43.35;97024.38;6982436;28;20314;-81
2022/09/28 11:30:52;;;;;;;4.87;2.67;;;;;;;18.05;43.68;97057.81;6982446;28;20215;-80
2022/09/28 11:34:16;;;;;;;3.07;2.10;;;;;;;17.74;44.19;97036.75;6982900;28;20357;-80
2022/09/28 11:37:54;;;;;;;3.47;2.60;;;;;;;18.29;43.69;97050.38;6983037;28;20230;-81
2022/09/28 11:41:37;;;;;;;4.03;2.43;;;;;;;17.75;44.60;97022.03;6982849;28;20333;-81
2022/09/28 11:45:05;;;;;;;4.80;2.30;;;;;;;18.63;43.09;97050.16;6982941;28;20307;-81
2022/09/28 11:48:29;;;;;;;4.00;2.03;;;;;;;18.92;42.06;97045.28;6981886;28;20319;-80
2022/09/28 11:51:52;;;;;;;2.67;2.20;;;;;;;18.91;41.86;97016.31;6982778;28;20266;-80
2022/09/28 11:55:19;;;;;;;6.10;2.50;;;;;;;18.52;42.69;97044.03;6987855;28;20210;-81
2022/09/28 11:58:44;;;;;;;4.53;2.20;;;;;;;18.67;42.67;97037.50;6983658;28;20444;-81
2022/09/28 12:02:13;;;;;;;2.30;1.97;;;;;;;18.75;42.46;97031.38;6981927;28;20225;-80
2022/09/28 12:05:39;;;;;;;5.17;2.57;;;;;;;18.19;44.22;97036.09;6983121;28;20198;-81
2022/09/28 12:09:05;;;;;;;4.57;2.20;;;;;;;18.21;43.02;97017.53;6982178;28;20221;-80
2022/09/28 12:12:32;;;;;;;4.27;2.30;;;;;;;18.54;43.10;97019.19;6982967;28;20205;-80
2022/09/28 12:15:59;;;;;;;3.43;2.43;;;;;;;18.72;43.04;97030.06;6983340;28;20359;-80
2022/09/28 12:19:23;;;;;;;4.87;2.30;;;;;;;18.82;42.29;97034.53;6982364;28;20275;-80
2022/09/28 12:22:48;;;;;;;2.53;1.90;;;;;;;18.02;43.12;97003.06;6982436;28;20342;-81
2022/09/28 12:26:24;;;;;;;2.77;1.90;;;;;;;18.44;41.74;97033.81;6996343;28;20229;-80
2022/09/28 12:29:48;;;;;;;3.07;2.00;;;;;;;18.42;43.14;97030.56;6985546;28;20809;-80
2022/09/28 12:33:14;;;;;;;4.07;2.03;;;;;;;18.75;42.47;97015.00;6980337;28;20348;-81
2022/09/28 12:36:44;;;;;;;3.57;2.03;;;;;;;18.79;41.50;97025.00;6981172;28;20257;-82
2022/09/28 12:40:25;;;;;;;3.47;2.00;;;;;;;18.74;41.31;97029.78;6980250;28;20343;-80
2022/09/28 12:43:59;;;;;;;2.50;1.70;;;;;;;18.60;41.61;97017.97;6980167;28;20256;-81
2022/09/28 12:47:56;;;;;;;4.27;1.90;;;;;;;18.62;40.76;97004.84;6980107;28;20226;-80
2022/09/28 12:51:30;;;;;;;2.40;1.60;;;;;;;19.24;40.37;97013.28;6979937;28;20269;-81
2022/09/28 12:55:08;;;;;;;3.97;1.93;;;;;;;19.62;39.62;97013.84;6979473;28;20213;-81
2022/09/28 12:58:38;;;;;;;4.10;2.03;;;;;;;19.48;38.91;97002.94;6978841;28;20236;-81
2022/09/28 13:02:14;;;;;;;3.30;2.13;;;;;;;19.09;39.65;97009.97;6978101;28;20360;-81
2022/09/28 13:05:55;;;;;;;3.07;1.73;;;;;;;19.08;40.78;97002.91;6980490;28;20649;-80
2022/09/28 13:09:22;;;;;;;1.97;1.83;;;;;;;19.40;40.94;97019.25;6978856;28;20684;-80
2022/09/28 13:12:56;;;;;;;4.27;1.90;;;;;;;19.56;39.03;97010.41;6979760;28;20556;-80
2022/09/28 13:16:22;;;;;;;2.10;1.67;;;;;;;19.25;38.19;97016.81;6979300;28;20245;-81
2022/09/28 13:19:48;;;;;;;1.60;1.50;;;;;;;18.96;37.75;97008.03;6978460;28;20314;-81
2022/09/28 13:23:14;;;;;;;3.37;1.80;;;;;;;19.06;38.58;97013.31;6979152;28;20249;-81
2022/09/28 13:26:40;;;;;;;2.00;1.77;;;;;;;18.97;38.60;97012.38;6979204;28;20206;-81
2022/09/28 13:30:05;;;;;;;5.30;2.00;;;;;;;18.33;39.37;97017.91;6978152;28;20262;-80
2022/09/28 13:33:32;;;;;;;4.77;1.90;;;;;;;19.09;38.39;97005.34;6978844;28;20213;-80
2022/09/28 13:37:19;;;;;;;3.13;1.53;;;;;;;19.23;40.05;97006.16;6979072;28;20191;-81
2022/09/28 13:41:11;;;;;;;2.67;1.67;;;;;;;19.25;38.76;97001.22;6978402;28;20195;-80
2022/09/28 13:44:45;;;;;;;2.23;1.97;;;;;;;19.30;39.13;96997.59;7003756;28;20245;-81
2022/09/28 13:48:16;;;;;;;3.97;1.87;;;;;;;18.85;39.54;97006.59;7004780;28;20683;-80
2022/09/28 13:51:48;;;;;;;2.23;1.67;;;;;;;18.81;39.81;97025.50;7005783;28;20259;-81
2022/09/28 13:55:16;;;;;;;2.60;1.47;;;;;;;18.81;38.88;97013.81;7006803;28;20247;-81
2022/09/28 13:58:43;;;;;;;3.50;1.60;;;;;;;18.65;38.76;97001.53;7005449;28;20291;-80
2022/09/28 14:02:19;;;;;;;2.07;1.73;;;;;;;19.04;38.78;97021.81;7004966;28;20362;-81
2022/09/28 14:05:47;;;;;;;3.53;2.57;;;;;;;19.18;38.23;97019.09;7006599;28;20226;-80
2022/09/28 14:09:38;;;;;;;3.90;2.37;;;;;;;19.25;39.07;97014.06;7005925;28;20232;-81
2022/09/28 14:12:59;;;;;;;2.20;1.53;;;;;;;18.90;38.60;97028.38;7004191;28;20220;-81
2022/09/28 14:16:23;;;;;;;5.27;2.07;;;;;;;19.08;38.32;97043.88;7007073;28;20272;-81
2022/09/28 14:19:49;;;;;;;1.80;1.70;;;;;;;18.94;39.11;97041.13;7005086;28;20259;-81
2022/09/28 14:23:32;;;;;;;3.67;2.10;;;;;;;18.99;38.34;97007.47;7005875;28;20284;-80
2022/09/28 14:27:11;;;;;;;2.43;1.87;;;;;;;18.98;38.62;97050.34;6998947;28;20205;-81
2022/09/28 14:30:47;;;;;;;1.90;1.80;;;;;;;19.14;38.39;97053.59;6976360;28;20194;-81
2022/09/28 14:34:23;;;;;;;2.73;1.70;;;;;;;19.47;37.32;97057.91;6977389;28;20209;-81
2022/09/28 14:41:32;;;;;;;2.80;1.90;;;;;;;19.22;37.74;97056.47;6978092;28;20186;-82
2022/09/28 14:45:35;;;;;;;6.97;3.60;;;;;;;19.39;37.92;97061.34;6978334;28;20214;-82
2022/09/28 14:49:00;;;;;;;2.80;2.47;;;;;;;19.12;39.17;97058.56;6978534;28;20323;-82
2022/09/28 14:52:38;;;;;;;6.30;1.93;;;;;;;18.97;38.78;97059.63;6979025;28;20205;-83
2022/09/28 14:56:07;;;;;;;2.30;1.60;;;;;;;19.41;37.89;97061.84;7002743;28;20209;-81
2022/09/28 14:59:34;;;;;;;2.00;1.70;;;;;;;19.36;38.16;97062.78;7011320;28;20298;-82
2022/09/28 15:03:00;;;;;;;2.00;1.70;;;;;;;19.59;37.77;97060.94;7011161;28;20205;-82
2022/09/28 15:06:22;;;;;;;3.83;1.60;;;;;;;19.74;36.87;97055.19;7011386;28;20293;-83
2022/09/28 15:09:44;;;;;;;2.40;1.80;;;;;;;19.39;37.26;97066.81;7010942;28;20241;-82
2022/09/28 15:13:19;;;;;;;2.90;1.90;;;;;;;19.26;37.68;97062.13;7011986;28;20202;-82
2022/09/28 15:16:41;;;;;;;2.27;1.83;;;;;;;18.72;38.87;97068.28;7011852;28;20194;-82
2022/09/28 15:20:22;;;;;;;4.37;1.83;;;;;;;18.89;38.71;97064.97;7011258;28;20287;-82
2022/09/28 15:23:45;;;;;;;2.60;1.80;;;;;;;18.55;40.00;97067.19;7000859;28;20225;-83
2022/09/28 15:27:14;;;;;;;2.23;1.70;;;;;;;18.97;39.89;97065.09;6983641;28;20202;-83
2022/09/28 15:30:37;;;;;;;4.53;4.13;;;;;;;19.05;39.30;97055.41;6983760;28;20188;-82
2022/09/28 15:37:39;;;;;;;2.50;1.73;;;;;;;18.73;39.16;97036.31;7010370;28;20247;-82
2022/09/28 15:41:03;;;;;;;5.27;4.40;;;;;;;19.39;39.24;97072.28;7010754;28;20197;-82
2022/09/28 15:44:28;;;;;;;3.03;2.70;;;;;;;18.92;40.71;97070.66;7011244;28;20232;-82
2022/09/28 15:47:54;;;;;;;10.33;7.50;;;;;;;18.97;40.65;97070.56;7011118;28;20221;-82
2022/09/28 15:51:17;;;;;;;16.73;14.97;;;;;;;18.74;39.70;97036.03;7010624;28;20204;-82
2022/09/28 15:54:43;;;;;;;5.83;2.90;;;;;;;19.48;38.64;97067.72;7010186;28;20323;-82
2022/09/28 15:58:07;;;;;;;6.23;3.20;;;;;;;19.01;39.88;97074.31;7010027;28;20309;-85
2022/09/28 16:01:34;;;;;;;4.53;2.87;;;;;;;18.91;39.63;97052.66;7015578;28;20203;-82
2022/09/28 16:04:59;;;;;;;2.17;1.87;;;;;;;19.04;40.46;97075.66;7009864;28;20214;-82
2022/09/28 16:08:24;;;;;;;3.47;2.87;;;;;;;19.24;40.04;97070.66;7009205;28;20232;-81
2022/09/28 16:11:47;;;;;;;2.33;2.10;;;;;;;19.13;40.95;97073.84;7010057;28;20288;-82
2022/09/28 16:15:16;;;;;;;3.57;1.93;;;;;;;19.23;40.94;97070.94;7016245;28;20205;-80
2022/09/28 16:18:39;;;;;;;3.17;1.70;;;;;;;19.04;41.79;97067.47;7008319;28;20229;-81
2022/09/28 16:22:02;;;;;;;3.67;2.10;;;;;;;19.22;41.93;97067.41;7001966;28;20226;-80
2022/09/28 16:25:26;;;;;;;3.10;1.47;;;;;;;18.96;44.33;97081.78;6999342;28;20239;-80
2022/09/28 16:28:50;;;;;;;6.17;2.33;;;;;;;18.93;44.25;97085.94;7008209;28;20228;-80